Time;durP1;ratioP1;P1;durP2;ratioP2;P2;SDS_P1;SDS_P2;PMS_P1;PMS_P2;Temp;Humidity;BMP_temperature;BMP_pressure;BME280_temperature;BME280_humidity;BME280_pressure;Samples;Min_cycle;Max_cycle;Signal;HPM_P1;HPM_P2
2022/02/10 00:15:44;;;;;;;31.23;13.70;;;;;;;;;;10368087;28;20046;-59
2022/02/10 00:20:38;;;;;;;24.25;12.57;;;;;;;;;;10367564;28;20054;-59
2022/02/10 00:36:04;;;;;;;22.17;12.57;;;;;;;;;;10367381;28;20419;-59
2022/02/10 00:41:04;;;;;;;21.50;12.75;;;;;;;;;;10368484;28;20084;-60
2022/02/10 00:46:06;;;;;;;19.50;13.03;;;;;;;;;;10367575;28;20438;-59
2022/02/10 00:51:06;;;;;;;25.02;13.50;;;;;;;;;;10366895;28;20974;-59
2022/02/10 00:56:09;;;;;;;23.52;13.18;;;;;;;;;;10368365;28;20029;-60
2022/02/10 01:33:07;;;;;;;24.25;12.30;;;;;;;;;;10374785;28;20042;-59
2022/02/10 01:38:08;;;;;;;21.85;13.32;;;;;;;;;;10375138;28;20109;-59
2022/02/10 01:57:45;;;;;;;21.47;12.07;;;;;;;;;;10374390;28;20122;-59
2022/02/10 02:04:44;;;;;;;;;;;;;;;;;;10374202;28;20034;-59
2022/02/10 02:09:44;;;;;;;26.83;13.30;;;;;;;;;;10373495;28;19913;-59
2022/02/10 02:14:45;;;;;;;20.73;11.87;;;;;;;;;;10372637;28;20042;-59
2022/02/10 02:19:45;;;;;;;19.27;11.60;;;;;;;;;;10373053;28;20482;-59
2022/02/10 02:24:47;;;;;;;20.53;12.13;;;;;;;;;;10373883;28;20025;-59
2022/02/10 02:29:50;;;;;;;19.50;12.02;;;;;;;;;;10373131;28;20041;-59
2022/02/10 02:35:17;;;;;;;16.83;12.00;;;;;;;;;;10372933;28;20022;-59
2022/02/10 03:07:06;;;;;;;;;;;;;;;;;;10371723;28;20041;-59
2022/02/10 03:12:08;;;;;;;20.17;11.38;;;;;;;;;;10371347;28;19913;-59
2022/02/10 04:20:44;;;;;;;15.77;10.50;;;;;;;;;;10368719;28;20037;-59
2022/02/10 04:32:01;;;;;;;15.98;11.10;;;;;;;;;;10368560;28;20068;-59
2022/02/10 04:57:22;;;;;;;17.05;9.85;;;;;;;;;;10368008;28;19913;-59
2022/02/10 05:33:46;;;;;;;15.43;9.70;;;;;;;;;;10367225;28;20022;-59
2022/02/10 05:38:57;;;;;;;15.18;10.15;;;;;;;;;;10367140;28;20420;-59
2022/02/10 05:44:50;;;;;;;13.43;9.65;;;;;;;;;;10367578;28;20026;-59
2022/02/10 06:47:56;;;;;;;13.50;9.45;;;;;;;;;;10372039;28;20038;-58
2022/02/10 06:52:59;;;;;;;18.65;9.93;;;;;;;;;;10370992;28;20065;-58
2022/02/10 09:04:01;;;;;;;18.98;9.93;;;;;;;;;;10366850;28;20030;-62
2022/02/10 10:02:27;;;;;;;22.25;9.38;;;;;;;;;;10363099;28;20060;-55
2022/02/10 10:18:28;;;;;;;15.75;8.95;;;;;;;;;;10373224;28;20061;-57
2022/02/10 10:23:43;;;;;;;17.88;9.80;;;;;;;;;;10372093;28;20049;-57
2022/02/10 10:45:17;;;;;;;16.17;8.80;;;;;;;;;;10372626;28;20480;-58
2022/02/10 10:50:14;;;;;;;16.88;8.63;;;;;;;;;;10369982;28;20049;-58
2022/02/10 11:39:03;;;;;;;19.13;9.27;;;;;;;;;;10370402;28;19917;-63
2022/02/10 12:37:09;;;;;;;;;;;;;;;;;;10364705;28;20037;-63
2022/02/10 14:18:55;;;;;;;14.15;7.50;;;;;;;;;;10363651;28;19923;-60
2022/02/10 14:28:56;;;;;;;33.80;7.30;;;;;;;;;;10366985;28;20045;-59
2022/02/10 14:33:57;;;;;;;25.55;7.38;;;;;;;;;;10359571;28;20460;-61
2022/02/10 14:39:11;;;;;;;47.28;7.60;;;;;;;;;;10354798;28;20355;-62
2022/02/10 16:19:07;;;;;;;;;;;;;;;;;;10349320;28;20041;-60
2022/02/10 16:24:19;;;;;;;18.10;5.30;;;;;;;;;;10363534;28;20537;-61
2022/02/10 16:29:22;;;;;;;11.25;5.53;;;;;;;;;;10356942;28;20033;-61
2022/02/10 16:34:23;;;;;;;8.38;4.57;;;;;;;;;;10357513;28;20022;-59
2022/02/10 16:39:23;;;;;;;15.98;4.95;;;;;;;;;;10346696;28;20033;-60
2022/02/10 16:44:24;;;;;;;12.50;5.10;;;;;;;;;;10351746;28;20018;-61
2022/02/10 16:49:24;;;;;;;15.02;5.35;;;;;;;;;;10350717;28;20471;-59
2022/02/10 16:54:34;;;;;;;12.60;4.90;;;;;;;;;;10353423;28;20034;-59
2022/02/10 17:20:44;;;;;;;14.48;6.10;;;;;;;;;;10360003;28;20050;-61
2022/02/10 17:25:49;;;;;;;10.75;5.13;;;;;;;;;;10354816;28;20369;-61
2022/02/10 17:31:23;;;;;;;18.90;5.72;;;;;;;;;;10345550;28;20026;-60
2022/02/10 17:36:36;;;;;;;11.80;5.72;;;;;;;;;;10341191;28;20057;-62
2022/02/10 17:42:47;;;;;;;12.80;5.63;;;;;;;;;;10338825;28;20584;-62
2022/02/10 17:52:19;;;;;;;13.50;5.45;;;;;;;;;;10361203;28;20421;-60
2022/02/10 17:57:19;;;;;;;17.83;5.15;;;;;;;;;;10361854;28;20029;-61
2022/02/10 18:02:20;;;;;;;17.63;5.53;;;;;;;;;;10368822;28;20018;-63
2022/02/10 18:07:20;;;;;;;13.90;4.77;;;;;;;;;;10352153;28;20033;-60
2022/02/10 18:17:41;;;;;;;10.38;5.28;;;;;;;;;;10337040;28;20055;-60
2022/02/10 18:28:20;;;;;;;10.63;5.93;;;;;;;;;;10362058;28;20033;-58
2022/02/10 19:10:11;;;;;;;18.23;7.85;;;;;;;;;;10351717;28;20038;-58
2022/02/10 19:20:16;;;;;;;19.35;8.50;;;;;;;;;;10356138;28;20054;-59
2022/02/10 19:25:17;;;;;;;14.65;7.50;;;;;;;;;;10376795;28;20030;-60
2022/02/10 19:30:20;;;;;;;22.48;7.93;;;;;;;;;;10344115;28;20038;-58
2022/02/10 19:35:23;;;;;;;16.77;8.27;;;;;;;;;;10361888;28;20484;-58
2022/02/10 19:40:25;;;;;;;18.60;8.18;;;;;;;;;;10357540;28;20112;-57
2022/02/10 19:45:25;;;;;;;22.60;8.55;;;;;;;;;;10356951;28;20026;-47
2022/02/10 19:50:28;;;;;;;24.20;8.93;;;;;;;;;;10358815;28;20029;-59
2022/02/10 19:55:29;;;;;;;15.80;8.68;;;;;;;;;;10346237;28;20464;-59
2022/02/10 20:00:36;;;;;;;14.10;8.68;;;;;;;;;;10341527;28;20038;-58
2022/02/10 20:05:36;;;;;;;17.60;9.52;;;;;;;;;;10349018;28;20431;-58
2022/02/10 20:10:36;;;;;;;15.47;8.47;;;;;;;;;;10349383;28;20038;-59
2022/02/10 20:15:37;;;;;;;12.53;8.40;;;;;;;;;;10352588;28;21217;-57
2022/02/10 20:20:37;;;;;;;14.57;8.30;;;;;;;;;;10346319;28;20526;-59
2022/02/10 20:25:38;;;;;;;16.92;9.40;;;;;;;;;;10356757;28;20562;-57
2022/02/10 20:30:40;;;;;;;15.82;8.98;;;;;;;;;;10332333;28;20046;-58
2022/02/10 20:35:43;;;;;;;16.65;8.88;;;;;;;;;;10355025;28;21568;-58
2022/02/10 20:40:46;;;;;;;23.20;9.18;;;;;;;;;;10347084;28;20481;-59
2022/02/10 20:45:54;;;;;;;15.20;8.85;;;;;;;;;;10347072;28;20033;-58
2022/02/10 20:50:56;;;;;;;15.98;9.05;;;;;;;;;;10340309;28;20119;-58
2022/02/10 20:56:02;;;;;;;14.73;9.10;;;;;;;;;;10346215;28;20039;-58
2022/02/10 21:01:03;;;;;;;21.23;9.60;;;;;;;;;;10339956;28;20424;-58
2022/02/10 21:11:06;;;;;;;13.77;9.38;;;;;;;;;;10342900;28;20042;-47
2022/02/10 21:16:06;;;;;;;19.65;9.50;;;;;;;;;;10342645;28;20026;-58
2022/02/10 21:21:12;;;;;;;14.38;9.15;;;;;;;;;;10369571;28;20049;-58
2022/02/10 21:26:15;;;;;;;16.70;10.00;;;;;;;;;;10339831;28;20038;-56
2022/02/10 21:31:16;;;;;;;33.30;10.25;;;;;;;;;;10357902;28;20061;-57
2022/02/10 21:41:54;;;;;;;19.70;9.87;;;;;;;;;;10349573;28;20114;-59
2022/02/10 22:23:16;;;;;;;23.50;9.70;;;;;;;;;;10342905;28;20042;-59
2022/02/10 22:38:48;;;;;;;16.80;10.15;;;;;;;;;;10342277;28;20042;-57
2022/02/10 22:43:50;;;;;;;20.95;10.25;;;;;;;;;;10350436;28;20216;-58
2022/02/10 22:48:51;;;;;;;15.73;9.63;;;;;;;;;;10367791;28;20040;-59
2022/02/10 22:53:53;;;;;;;17.85;9.65;;;;;;;;;;10365755;28;20362;-56
2022/02/10 22:58:54;;;;;;;14.23;10.02;;;;;;;;;;10364873;28;20047;-57
2022/02/10 23:03:55;;;;;;;14.02;9.43;;;;;;;;;;10365272;28;20064;-54
2022/02/10 23:08:55;;;;;;;14.00;9.13;;;;;;;;;;10347479;28;20041;-56
2022/02/10 23:13:58;;;;;;;16.60;9.50;;;;;;;;;;10358225;28;20183;-55
2022/02/10 23:18:58;;;;;;;14.13;8.77;;;;;;;;;;10346137;28;20499;-55
2022/02/10 23:23:58;;;;;;;17.73;9.60;;;;;;;;;;10329611;28;20045;-56
2022/02/10 23:28:59;;;;;;;15.37;9.03;;;;;;;;;;10337796;28;20482;-55
2022/02/10 23:34:02;;;;;;;15.23;8.95;;;;;;;;;;10327044;28;20881;-55
2022/02/10 23:39:15;;;;;;;15.63;8.50;;;;;;;;;;10334397;28;20068;-55
2022/02/10 23:44:23;;;;;;;14.65;8.57;;;;;;;;;;10338706;28;20113;-53
2022/02/10 23:49:25;;;;;;;13.30;8.00;;;;;;;;;;10336392;28;20512;-55
2022/02/10 23:54:28;;;;;;;14.63;8.25;;;;;;;;;;10344824;28;20049;-55
